KSPG

Albert Whitted Airport

St Petersburg, Florida, USA
METAR KSPG 112353Z 34007KT 10SM CLR 11/07 A3028 RMK AO2 SLP253 T01110067 10139 20111 51012
Observed Flight Rules
Dec-11 @ 23:53 UTC (50 minutes ago) Visual Flight Rules
Wind Visibility Clouds
340° at 7 knots 10 miles
  • Clear skies
Temperatures Readings
Current 11°C / 52°F
Dewpoint 7°C / 45°F
Humidity 77%
Altimeter 30.28" Hg
Pressure 1025.3 hPa
Elevation 2
METAR KSPG 112353Z 34007KT 10SM CLR 11/07 A3028 RMK AO2 SLP253 T01110067 10139 20111 51012
Observed Flight Rules
Dec-11 @ 23:53 UTC
(50 minutes ago)
VFR
Wind Visibility
340° at 7 knots 10 miles
Clouds
  • Clear skies
Temperature Dewpoint
11°C / 52°F 7°C / 45°F
Humidity Altimeter Pressure
77% 30.28" Hg 1025.3 hPa